createdAt,value
2023-02-21T00:00:35.815Z,59.28
2023-02-21T00:03:40.257Z,61.55
2023-02-21T00:06:26.951Z,62.91
2023-02-21T00:09:13.456Z,59.46
2023-02-21T00:12:00.057Z,54.82
2023-02-21T00:14:46.872Z,56.96
2023-02-21T00:17:33.373Z,59.11
2023-02-21T00:20:19.874Z,61.69
2023-02-21T00:23:06.484Z,62.40
2023-02-21T00:25:52.886Z,57.96
2023-02-21T00:28:39.691Z,54.74
2023-02-21T00:31:26.435Z,57.16
2023-02-21T00:34:12.913Z,59.49
2023-02-21T00:36:59.404Z,62.27
2023-02-21T00:39:46.110Z,61.50
2023-02-21T00:42:32.717Z,55.69
2023-02-21T00:45:19.122Z,56.58
2023-02-21T00:48:05.723Z,59.41
2023-02-21T00:50:52.225Z,61.55
2023-02-21T00:53:38.625Z,62.17
2023-02-21T00:56:25.231Z,57.64
2023-02-21T00:59:11.733Z,57.69
2023-02-21T01:01:58.238Z,60.59
2023-02-21T01:04:44.953Z,62.83
2023-02-21T01:07:31.557Z,60.12
2023-02-21T01:10:18.163Z,55.48
2023-02-21T01:13:04.974Z,57.94
2023-02-21T01:15:51.337Z,60.72
2023-02-21T01:18:38.086Z,62.44
2023-02-21T01:21:24.898Z,59.80
2023-02-21T01:24:11.409Z,57.06
2023-02-21T01:26:57.768Z,58.66
2023-02-21T01:29:44.166Z,60.91
2023-02-21T01:32:30.762Z,62.61
2023-02-21T01:35:17.097Z,58.96
2023-02-21T01:38:03.465Z,56.27
2023-02-21T01:40:49.763Z,58.59
2023-02-21T01:43:36.306Z,61.07
2023-02-21T01:46:23.170Z,62.85
2023-02-21T01:49:09.832Z,62.61
2023-02-21T01:51:56.533Z,55.34
2023-02-21T01:54:43.145Z,56.14
2023-02-21T01:57:29.844Z,59.50
2023-02-21T02:00:16.249Z,60.46
2023-02-21T02:03:03.056Z,62.84
2023-02-21T02:05:49.458Z,60.93
2023-02-21T02:08:35.960Z,55.81
2023-02-21T02:11:22.271Z,57.05
2023-02-21T02:13:50.211Z,60.32
2023-02-21T02:16:18.175Z,62.12
2023-02-21T02:18:46.285Z,63.93
2023-02-21T02:21:14.248Z,60.37
2023-02-21T02:23:42.105Z,54.81
2023-02-21T02:26:09.764Z,56.70
2023-02-21T02:28:37.430Z,59.43
2023-02-21T02:31:05.207Z,59.86
2023-02-21T02:33:33.058Z,62.89
2023-02-21T02:36:00.725Z,61.60
2023-02-21T02:38:28.503Z,56.20
2023-02-21T02:40:56.142Z,57.03
2023-02-21T02:43:24.011Z,60.33
2023-02-21T02:45:52.132Z,62.24
2023-02-21T02:48:20.252Z,63.65
2023-02-21T02:50:48.230Z,60.52
2023-02-21T02:53:16.394Z,55.20
2023-02-21T02:55:44.064Z,57.14
2023-02-21T02:58:12.227Z,59.63
2023-02-21T03:00:39.992Z,62.33
2023-02-21T03:03:07.762Z,62.66
2023-02-21T03:05:35.621Z,58.29
2023-02-21T03:08:03.388Z,57.75
2023-02-21T03:10:31.049Z,61.08
2023-02-21T03:13:00.011Z,63.56
2023-02-21T03:15:28.727Z,60.69
2023-02-21T03:17:56.386Z,57.32
2023-02-21T03:20:24.048Z,58.20
2023-02-21T03:22:51.813Z,62.27
2023-02-21T03:25:19.679Z,64.20
2023-02-21T03:27:47.340Z,58.78
2023-02-21T03:30:15.045Z,58.03
2023-02-21T03:32:42.868Z,60.99
2023-02-21T03:35:10.639Z,63.25
2023-02-21T03:37:38.407Z,60.48
2023-02-21T03:40:06.172Z,57.69
2023-02-21T03:42:33.927Z,60.64
2023-02-21T03:45:01.594Z,63.41
2023-02-21T03:47:29.248Z,61.46
2023-02-21T03:49:56.908Z,55.79
2023-02-21T03:52:24.567Z,57.47
2023-02-21T03:54:52.234Z,61.49
2023-02-21T03:57:19.892Z,63.84
2023-02-21T03:59:47.661Z,60.00
2023-02-21T04:02:15.472Z,58.24
2023-02-21T04:04:43.188Z,61.24
2023-02-21T04:07:10.852Z,63.48
2023-02-21T04:09:39.128Z,60.83
2023-02-21T04:12:06.790Z,57.15
2023-02-21T04:14:34.554Z,61.27
2023-02-21T04:17:02.220Z,62.96
2023-02-21T04:19:29.883Z,58.97
2023-02-21T04:21:57.536Z,56.72
2023-02-21T04:24:25.400Z,61.03
2023-02-21T04:26:53.072Z,62.69
2023-02-21T04:29:20.832Z,58.24
2023-02-21T04:31:48.696Z,57.88
2023-02-21T04:34:16.564Z,60.93
2023-02-21T04:36:44.533Z,64.82
2023-02-21T04:39:12.195Z,59.70
2023-02-21T04:41:39.854Z,57.97
2023-02-21T04:44:07.722Z,60.99
2023-02-21T04:46:35.386Z,64.68
2023-02-21T04:49:03.051Z,62.09
2023-02-21T04:51:30.809Z,57.33
2023-02-21T04:53:58.475Z,59.81
2023-02-21T04:56:27.712Z,63.61
2023-02-21T04:58:55.639Z,61.60
2023-02-21T05:01:23.438Z,57.62
2023-02-21T05:03:51.333Z,59.19
2023-02-21T05:06:19.032Z,63.62
2023-02-21T05:08:46.798Z,61.74
2023-02-21T05:11:14.927Z,58.59
2023-02-21T05:13:42.938Z,60.78
2023-02-21T05:16:10.746Z,63.32
2023-02-21T05:18:41.335Z,60.63
2023-02-21T05:21:09.006Z,58.15
2023-02-21T05:23:37.084Z,60.59
2023-02-21T05:26:04.827Z,63.88
2023-02-21T05:28:32.594Z,61.34
2023-02-21T05:31:01.172Z,57.69
2023-02-21T05:33:29.142Z,60.12
2023-02-21T05:35:56.822Z,63.73
2023-02-21T05:38:24.579Z,62.33
2023-02-21T05:40:52.221Z,58.86
2023-02-21T05:43:19.897Z,60.41
2023-02-21T05:45:47.709Z,63.26
2023-02-21T05:48:15.428Z,61.49
2023-02-21T05:50:43.094Z,57.85
2023-02-21T05:53:10.744Z,60.60
2023-02-21T05:55:38.609Z,63.99
2023-02-21T05:58:06.396Z,60.81
2023-02-21T06:00:34.238Z,57.48
2023-02-21T06:03:04.706Z,60.57
2023-02-21T06:05:33.145Z,63.66
2023-02-21T06:08:00.807Z,61.07
2023-02-21T06:10:28.466Z,57.45
2023-02-21T06:12:56.233Z,60.15
2023-02-21T06:15:23.992Z,64.88
2023-02-21T06:17:51.964Z,62.10
2023-02-21T06:20:19.829Z,57.45
2023-02-21T06:22:48.316Z,60.72
2023-02-21T06:25:16.073Z,64.00
2023-02-21T06:27:44.145Z,60.71
2023-02-21T06:30:11.841Z,58.20
2023-02-21T06:32:39.676Z,60.72
2023-02-21T06:35:07.440Z,64.76
2023-02-21T06:37:35.104Z,61.67
2023-02-21T06:40:05.550Z,57.31
2023-02-21T06:42:33.200Z,58.89
2023-02-21T06:45:00.851Z,63.22
2023-02-21T06:47:28.516Z,62.82
2023-02-21T06:49:56.286Z,59.62
2023-02-21T06:52:24.151Z,57.82
2023-02-21T06:54:51.912Z,61.51
2023-02-21T06:57:20.189Z,64.08
2023-02-21T06:59:47.953Z,60.07
2023-02-21T07:02:15.628Z,57.73
2023-02-21T07:04:43.329Z,61.31
2023-02-21T07:07:11.142Z,64.43
2023-02-21T07:09:38.804Z,61.27
2023-02-21T07:12:06.566Z,58.07
2023-02-21T07:14:34.329Z,57.08
2023-02-21T07:17:01.992Z,61.69
2023-02-21T07:19:29.657Z,64.83
2023-02-21T07:21:57.414Z,61.38
2023-02-21T07:24:25.074Z,57.92
2023-02-21T07:26:52.741Z,59.70
2023-02-21T07:29:20.549Z,63.68
2023-02-21T07:31:48.348Z,61.88
2023-02-21T07:34:16.945Z,57.71
2023-02-21T07:36:44.733Z,59.14
2023-02-21T07:39:12.789Z,62.05
2023-02-21T07:41:40.449Z,63.08
2023-02-21T07:44:08.232Z,58.47
2023-02-21T07:46:36.401Z,58.06
2023-02-21T07:49:04.150Z,60.71
2023-02-21T07:51:32.231Z,63.57
2023-02-21T07:53:59.884Z,59.97
2023-02-21T07:56:27.551Z,56.11
2023-02-21T07:58:55.310Z,59.08
2023-02-21T08:01:22.979Z,62.87
2023-02-21T08:03:50.740Z,63.09
2023-02-21T08:06:18.805Z,57.37
2023-02-21T08:08:46.466Z,57.60
2023-02-21T08:11:14.509Z,58.87
2023-02-21T08:13:42.503Z,63.55
2023-02-21T08:16:10.279Z,62.05
2023-02-21T08:18:38.030Z,57.04
2023-02-21T08:21:05.691Z,58.55
2023-02-21T08:23:33.455Z,63.24
2023-02-21T08:26:01.123Z,62.81
2023-02-21T08:28:28.879Z,58.01
2023-02-21T08:30:56.550Z,57.73
2023-02-21T08:33:24.214Z,60.72
2023-02-21T08:35:51.967Z,63.53
2023-02-21T08:38:19.730Z,60.03
2023-02-21T08:40:47.405Z,57.56
2023-02-21T08:43:15.158Z,59.71
2023-02-21T08:45:42.821Z,63.36
2023-02-21T08:48:10.482Z,64.58
2023-02-21T08:50:38.141Z,59.90
2023-02-21T08:53:05.807Z,56.09
2023-02-21T08:55:33.569Z,58.49
2023-02-21T08:58:01.233Z,60.77
2023-02-21T09:00:29.096Z,65.92
2023-02-21T09:02:56.966Z,62.61
2023-02-21T09:05:24.931Z,56.64
2023-02-21T09:07:55.369Z,57.73
2023-02-21T09:10:23.121Z,61.44
2023-02-21T09:12:50.892Z,64.41
2023-02-21T09:15:18.652Z,58.17
2023-02-21T09:17:46.419Z,57.30
2023-02-21T09:20:14.078Z,60.78
2023-02-21T09:22:41.739Z,63.89
2023-02-21T09:25:13.199Z,60.30
2023-02-21T09:27:40.966Z,56.39
2023-02-21T09:30:08.873Z,58.98
2023-02-21T09:32:36.991Z,62.11
2023-02-21T09:35:04.872Z,62.21
2023-02-21T09:37:32.728Z,57.36
2023-02-21T09:40:00.491Z,57.73
2023-02-21T09:42:28.156Z,60.01
2023-02-21T09:44:55.920Z,63.02
2023-02-21T09:47:23.581Z,60.24
2023-02-21T09:49:51.854Z,53.78
2023-02-21T09:52:19.620Z,55.02
2023-02-21T09:54:47.281Z,59.29
2023-02-21T09:57:15.040Z,60.97
2023-02-21T09:59:43.121Z,63.62
2023-02-21T10:02:10.905Z,60.13
2023-02-21T10:04:38.663Z,54.35
2023-02-21T10:07:06.439Z,55.62
2023-02-21T10:09:37.257Z,59.79
2023-02-21T10:12:05.004Z,61.42
2023-02-21T10:14:32.664Z,63.29
2023-02-21T10:17:00.435Z,59.35
2023-02-21T10:19:30.137Z,53.32
2023-02-21T10:22:00.972Z,56.63
2023-02-21T10:24:28.844Z,57.15
2023-02-21T10:26:56.605Z,61.50
2023-02-21T10:29:24.367Z,63.35
2023-02-21T10:31:53.284Z,59.76
2023-02-21T10:34:21.030Z,55.34
2023-02-21T10:36:48.682Z,55.73
2023-02-21T10:39:16.345Z,58.34
2023-02-21T10:41:44.008Z,61.90
2023-02-21T10:44:11.680Z,64.04
2023-02-21T10:46:39.537Z,56.58
2023-02-21T10:49:07.297Z,54.65
2023-02-21T10:51:35.197Z,57.58
2023-02-21T10:54:03.031Z,61.29
2023-02-21T10:56:30.797Z,62.84
2023-02-21T10:58:58.459Z,58.25
2023-02-21T11:01:26.253Z,56.08
2023-02-21T11:03:53.988Z,57.80
2023-02-21T11:06:22.266Z,60.80
2023-02-21T11:08:49.908Z,62.91
2023-02-21T11:11:17.587Z,59.09
2023-02-21T11:13:45.352Z,53.83
2023-02-21T11:16:13.259Z,56.90
2023-02-21T11:18:41.081Z,59.68
2023-02-21T11:21:08.743Z,61.60
2023-02-21T11:23:36.508Z,62.75
2023-02-21T11:26:04.172Z,56.80
2023-02-21T11:28:32.240Z,56.32
2023-02-21T11:31:00.018Z,59.13
2023-02-21T11:33:27.770Z,60.87
2023-02-21T11:35:55.540Z,62.06
2023-02-21T11:38:23.199Z,62.16
2023-02-21T11:40:50.863Z,56.08
2023-02-21T11:43:18.525Z,55.20
2023-02-21T11:45:46.326Z,56.28
2023-02-21T11:48:14.368Z,57.41
2023-02-21T11:50:46.941Z,58.63
2023-02-21T11:53:14.594Z,59.11
2023-02-21T11:55:42.255Z,59.74
2023-02-21T11:58:10.020Z,60.33
2023-02-21T12:00:39.875Z,61.21
2023-02-21T12:03:07.908Z,61.68
2023-02-21T12:05:36.359Z,62.31
2023-02-21T12:08:04.145Z,60.57
2023-02-21T12:10:31.793Z,56.30
2023-02-21T12:12:59.465Z,56.48
2023-02-21T12:15:27.126Z,57.84
2023-02-21T12:17:54.892Z,59.12
2023-02-21T12:20:22.558Z,59.67
2023-02-21T12:22:50.215Z,60.08
2023-02-21T12:25:18.182Z,60.21
2023-02-21T12:27:45.946Z,60.92
2023-02-21T12:30:13.716Z,61.59
2023-02-21T12:32:41.582Z,62.18
2023-02-21T12:35:09.248Z,62.54
2023-02-21T12:37:36.910Z,58.37
2023-02-21T12:40:05.388Z,53.32
2023-02-21T12:42:33.868Z,54.99
2023-02-21T12:45:01.631Z,57.14
2023-02-21T12:47:29.397Z,58.65
2023-02-21T12:49:57.058Z,59.60
2023-02-21T12:52:24.721Z,60.49
2023-02-21T12:54:52.382Z,60.45
2023-02-21T12:57:20.043Z,60.96
2023-02-21T12:59:47.841Z,61.21
2023-02-21T13:02:15.572Z,61.42
2023-02-21T13:04:43.344Z,61.73
2023-02-21T13:07:11.401Z,62.20
2023-02-21T13:09:39.066Z,62.19
2023-02-21T13:12:06.834Z,62.43
2023-02-21T13:14:34.592Z,57.62
2023-02-21T13:17:02.253Z,54.90
2023-02-21T13:19:29.916Z,56.44
2023-02-21T13:21:59.526Z,57.90
2023-02-21T13:24:33.330Z,58.99
2023-02-21T13:27:01.102Z,59.42
2023-02-21T13:29:28.757Z,59.60
2023-02-21T13:31:56.477Z,60.58
2023-02-21T13:34:24.590Z,61.01
2023-02-21T13:36:52.660Z,61.24
2023-02-21T13:39:22.074Z,61.66
2023-02-21T13:41:50.032Z,62.12
2023-02-21T13:44:18.006Z,62.73
2023-02-21T13:46:45.688Z,63.06
2023-02-21T13:49:13.427Z,54.57
2023-02-21T13:51:41.088Z,52.81
2023-02-21T13:54:08.969Z,54.65
2023-02-21T13:56:36.624Z,56.80
2023-02-21T13:59:04.386Z,57.45
2023-02-21T14:01:32.042Z,58.59
2023-02-21T14:03:59.777Z,59.17
2023-02-21T14:06:27.465Z,59.97
2023-02-21T14:08:58.713Z,60.27
2023-02-21T14:11:28.847Z,60.65
2023-02-21T14:13:56.502Z,61.12
2023-02-21T14:16:24.610Z,61.58
2023-02-21T14:18:52.327Z,62.00
2023-02-21T14:21:20.104Z,62.24
2023-02-21T14:23:48.779Z,67.63
2023-02-21T14:26:16.594Z,61.30
2023-02-21T14:28:44.518Z,51.82
2023-02-21T14:31:12.285Z,51.06
2023-02-21T14:33:39.937Z,53.07
2023-02-21T14:36:08.417Z,54.22
2023-02-21T14:38:36.797Z,55.23
2023-02-21T14:41:04.562Z,57.47
2023-02-21T14:43:32.839Z,56.76
2023-02-21T14:46:01.199Z,58.95
2023-02-21T14:48:30.822Z,59.64
2023-02-21T14:50:58.482Z,60.44
2023-02-21T14:53:26.107Z,61.39
2023-02-21T14:55:54.011Z,61.17
2023-02-21T14:58:21.672Z,62.07
2023-02-21T15:00:49.471Z,65.55
2023-02-21T15:03:17.201Z,59.27
2023-02-21T15:05:44.861Z,51.96
2023-02-21T15:08:12.625Z,51.88
2023-02-21T15:10:40.291Z,54.74
2023-02-21T15:13:08.050Z,56.46
2023-02-21T15:15:35.709Z,57.36
2023-02-21T15:18:03.490Z,58.70
2023-02-21T15:20:31.236Z,59.48
2023-02-21T15:22:59.002Z,60.10
2023-02-21T15:25:29.639Z,60.59
2023-02-21T15:27:57.393Z,60.60
2023-02-21T15:30:25.293Z,61.01
2023-02-21T15:32:53.126Z,61.22
2023-02-21T15:35:20.794Z,61.48
2023-02-21T15:37:48.449Z,61.34
2023-02-21T15:40:16.127Z,61.28
2023-02-21T15:42:43.875Z,61.53
2023-02-21T15:45:11.637Z,61.57
2023-02-21T15:47:39.303Z,61.73
2023-02-21T15:50:07.067Z,61.89
2023-02-21T15:52:34.726Z,62.01
2023-02-21T15:55:02.595Z,62.45
2023-02-21T15:57:30.261Z,60.33
2023-02-21T15:59:57.917Z,54.45
2023-02-21T16:02:26.775Z,55.46
2023-02-21T16:04:54.672Z,57.23
2023-02-21T16:07:22.544Z,58.74
2023-02-21T16:09:50.306Z,59.76
2023-02-21T16:12:17.965Z,60.32
2023-02-21T16:14:45.759Z,61.09
2023-02-21T16:17:13.518Z,61.45
2023-02-21T16:19:41.462Z,61.64
2023-02-21T16:22:09.126Z,62.05
2023-02-21T16:24:37.809Z,62.42
2023-02-21T16:27:06.090Z,59.07
2023-02-21T16:29:33.850Z,55.19
2023-02-21T16:32:01.786Z,55.38
2023-02-21T16:34:29.582Z,57.15
2023-02-21T16:36:57.349Z,58.23
2023-02-21T16:39:25.008Z,59.53
2023-02-21T16:41:52.670Z,60.36
2023-02-21T16:44:20.348Z,60.73
2023-02-21T16:46:48.097Z,60.93
2023-02-21T16:49:15.873Z,61.11
2023-02-21T16:51:44.034Z,61.36
2023-02-21T16:54:13.140Z,61.72
2023-02-21T16:56:40.792Z,61.65
2023-02-21T16:59:08.556Z,61.87
2023-02-21T17:01:36.903Z,61.95
2023-02-21T17:04:07.003Z,61.81
2023-02-21T17:06:34.687Z,61.94
2023-02-21T17:09:02.482Z,61.88
2023-02-21T17:11:30.251Z,62.08
2023-02-21T17:13:57.923Z,62.00
2023-02-21T17:16:25.762Z,61.65
2023-02-21T17:18:53.639Z,61.57
2023-02-21T17:21:21.303Z,60.93
2023-02-21T17:23:49.077Z,60.66
2023-02-21T17:26:18.190Z,60.89
2023-02-21T17:28:45.923Z,60.85
2023-02-21T17:31:13.815Z,60.70
2023-02-21T17:33:41.860Z,60.73
2023-02-21T17:36:09.523Z,60.78
2023-02-21T17:38:37.182Z,60.92
2023-02-21T17:41:04.888Z,60.95
2023-02-21T17:43:32.773Z,61.16
2023-02-21T17:46:00.757Z,61.44
2023-02-21T17:48:28.552Z,61.42
2023-02-21T17:50:56.206Z,61.52
2023-02-21T17:53:23.978Z,61.61
2023-02-21T17:55:51.740Z,61.68
2023-02-21T17:58:19.500Z,61.71
2023-02-21T18:00:47.575Z,60.65
2023-02-21T18:03:15.233Z,60.08
2023-02-21T18:05:43.005Z,60.19
2023-02-21T18:08:10.863Z,60.35
2023-02-21T18:10:38.531Z,60.37
2023-02-21T18:13:06.294Z,60.49
2023-02-21T18:15:33.956Z,60.14
2023-02-21T18:18:06.910Z,59.57
2023-02-21T18:20:36.047Z,59.49
2023-02-21T18:23:03.796Z,59.57
2023-02-21T18:25:31.460Z,59.66
2023-02-21T18:27:59.129Z,59.83
2023-02-21T18:30:26.915Z,59.96
2023-02-21T18:32:55.471Z,60.03
2023-02-21T18:35:23.132Z,59.97
2023-02-21T18:37:50.798Z,60.07
2023-02-21T18:40:18.463Z,60.10
2023-02-21T18:42:47.784Z,60.21
2023-02-21T18:45:15.534Z,60.56
2023-02-21T18:47:43.223Z,60.88
2023-02-21T18:50:10.945Z,61.14
2023-02-21T18:52:38.625Z,61.39
2023-02-21T18:55:06.375Z,61.54
2023-02-21T18:57:34.771Z,61.67
2023-02-21T19:00:02.522Z,62.00
2023-02-21T19:02:30.282Z,62.09
2023-02-21T19:04:58.044Z,62.35
2023-02-21T19:07:25.806Z,65.08
2023-02-21T19:09:54.702Z,63.66
2023-02-21T19:12:22.459Z,54.06
2023-02-21T19:14:50.123Z,50.85
2023-02-21T19:17:17.887Z,52.16
2023-02-21T19:19:45.551Z,53.89
2023-02-21T19:22:13.216Z,55.85
2023-02-21T19:24:40.885Z,56.51
2023-02-21T19:27:08.680Z,57.39
2023-02-21T19:29:36.409Z,57.70
2023-02-21T19:32:04.226Z,59.01
2023-02-21T19:34:32.238Z,59.67
2023-02-21T19:36:59.896Z,60.38
2023-02-21T19:39:27.564Z,60.82
2023-02-21T19:41:55.321Z,61.13
2023-02-21T19:44:23.203Z,60.92
2023-02-21T19:46:50.950Z,61.53
2023-02-21T19:49:18.713Z,61.52
2023-02-21T19:51:46.479Z,61.83
2023-02-21T19:54:14.115Z,62.21
2023-02-21T19:56:41.816Z,63.76
2023-02-21T19:59:09.461Z,59.53
2023-02-21T20:01:37.496Z,52.91
2023-02-21T20:04:05.444Z,53.12
2023-02-21T20:06:35.540Z,54.76
2023-02-21T20:09:03.210Z,56.34
2023-02-21T20:11:30.957Z,57.25
2023-02-21T20:13:59.866Z,58.39
2023-02-21T20:16:29.594Z,58.99
2023-02-21T20:18:58.125Z,59.53
2023-02-21T20:21:26.609Z,59.34
2023-02-21T20:23:54.272Z,60.43
2023-02-21T20:26:25.113Z,59.95
2023-02-21T20:28:52.879Z,61.15
2023-02-21T20:31:20.835Z,61.28
2023-02-21T20:33:48.708Z,61.48
2023-02-21T20:36:16.371Z,61.28
2023-02-21T20:38:44.138Z,61.91
2023-02-21T20:41:14.862Z,62.01
2023-02-21T20:43:42.939Z,61.91
2023-02-21T20:46:11.953Z,62.30
2023-02-21T20:48:39.904Z,63.18
2023-02-21T20:51:07.567Z,68.16
2023-02-21T20:53:36.971Z,60.08
2023-02-21T20:56:05.257Z,50.63
2023-02-21T20:58:33.309Z,48.79
2023-02-21T21:01:01.002Z,50.34
2023-02-21T21:03:29.772Z,52.63
2023-02-21T21:05:57.525Z,53.42
2023-02-21T21:08:25.377Z,54.91
2023-02-21T21:10:53.060Z,54.95
2023-02-21T21:13:21.023Z,56.63
2023-02-21T21:15:48.939Z,55.74
2023-02-21T21:18:16.769Z,57.27
2023-02-21T21:20:44.518Z,56.73
2023-02-21T21:23:12.282Z,57.50
2023-02-21T21:25:39.951Z,58.25
2023-02-21T21:28:07.710Z,58.46
2023-02-21T21:30:37.252Z,59.21
2023-02-21T21:33:07.540Z,58.89
2023-02-21T21:35:37.272Z,59.54
2023-02-21T21:38:07.368Z,60.01
2023-02-21T21:40:35.134Z,60.08
2023-02-21T21:43:06.989Z,60.72
2023-02-21T21:45:44.418Z,60.57
2023-02-21T21:48:15.151Z,61.25
2023-02-21T21:50:43.391Z,65.39
2023-02-21T21:53:11.153Z,63.64
2023-02-21T21:55:39.126Z,51.25
2023-02-21T21:58:10.764Z,47.68
2023-02-21T22:00:46.570Z,49.39
2023-02-21T22:03:14.600Z,51.58
2023-02-21T22:05:45.231Z,52.12
2023-02-21T22:08:16.666Z,53.30
2023-02-21T22:10:45.162Z,55.01
2023-02-21T22:13:20.298Z,54.62
2023-02-21T22:15:48.027Z,56.84
2023-02-21T22:18:15.824Z,57.78
2023-02-21T22:20:48.612Z,57.59
2023-02-21T22:23:16.375Z,58.96
2023-02-21T22:25:44.031Z,57.78
2023-02-21T22:28:13.249Z,58.15
2023-02-21T22:30:41.048Z,58.50
2023-02-21T22:33:08.962Z,60.35
2023-02-21T22:35:36.824Z,60.25
2023-02-21T22:38:05.414Z,60.66
2023-02-21T22:40:35.824Z,61.28
2023-02-21T22:43:03.595Z,61.26
2023-02-21T22:45:34.329Z,61.29
2023-02-21T22:48:03.562Z,61.60
2023-02-21T22:50:36.946Z,61.23
2023-02-21T22:53:04.893Z,61.24
2023-02-21T22:55:32.552Z,62.05
2023-02-21T22:58:01.443Z,66.01
2023-02-21T23:00:35.477Z,64.77
2023-02-21T23:03:03.321Z,51.92
2023-02-21T23:05:31.594Z,49.78
2023-02-21T23:07:59.258Z,50.54
2023-02-21T23:10:27.026Z,52.08
2023-02-21T23:12:54.683Z,53.60
2023-02-21T23:15:22.575Z,54.71
2023-02-21T23:17:50.312Z,54.99
2023-02-21T23:20:18.792Z,56.90
2023-02-21T23:22:46.454Z,57.34
2023-02-21T23:25:20.243Z,57.71
2023-02-21T23:27:47.924Z,58.46
2023-02-21T23:30:16.751Z,59.02
2023-02-21T23:32:44.472Z,60.18
2023-02-21T23:35:12.248Z,59.61
2023-02-21T23:37:43.199Z,60.41
2023-02-21T23:40:16.584Z,61.09
2023-02-21T23:42:44.342Z,61.19
2023-02-21T23:45:12.109Z,61.86
2023-02-21T23:47:42.331Z,66.04
2023-02-21T23:50:17.420Z,64.89
2023-02-21T23:52:46.564Z,54.83
2023-02-21T23:55:14.230Z,51.25
2023-02-21T23:57:43.239Z,52.65
